Elon, North Carolina
Current Conditions -  °F | °C
As of 12:54 AM on Sunday 23 Nov 2014 (Local Time) from KBUY Reporting Station
Overcast Overcast  
Wind Chill: 35°   Ceiling: 4700
Heat Index: 35°   Visibility: 10mi
Dew Point: 24°   Wind: 0mph
Humidity: 64%   Direction: NA
Pressure: 30.3"   Gusts: NA
Location:  36.1°N, 79.51°W
Report Text: KBUY 230554Z AUTO 00000KT 10SM OVC047 02/M04 A3030 RMK AO2 SLP262 T00171044 10044 21006 58012
Loading
Personal Weather Stations






























Interactive Weather Map New forecast layout! Learn more

10-Day Weather Forecast

Advertisements
Track Severe Weather on mobile